createdAt,value
2019-03-09T00:01:59.517Z,23.1
2019-03-09T00:05:05.629Z,23
2019-03-09T00:08:11.710Z,23
2019-03-09T00:11:17.708Z,23
2019-03-09T00:14:23.812Z,23
2019-03-09T00:17:29.903Z,23
2019-03-09T00:20:36.255Z,23
2019-03-09T00:23:42.201Z,23
2019-03-09T00:26:48.357Z,23
2019-03-09T00:29:54.350Z,23
2019-03-09T00:33:01.519Z,23
2019-03-09T00:36:07.436Z,23
2019-03-09T00:39:13.362Z,23
2019-03-09T00:42:19.496Z,22.9
2019-03-09T00:45:26.860Z,22.9
2019-03-09T00:48:32.907Z,22.9
2019-03-09T00:51:38.865Z,22.9
2019-03-09T00:54:47.442Z,22.9
2019-03-09T00:57:54.477Z,22.9
2019-03-09T01:01:00.487Z,22.9
2019-03-09T01:04:06.498Z,22.9
2019-03-09T01:07:12.463Z,22.9
2019-03-09T01:10:18.376Z,22.9
2019-03-09T01:13:24.368Z,22.9
2019-03-09T01:16:30.373Z,22.9
2019-03-09T01:19:36.282Z,22.9
2019-03-09T01:22:42.374Z,22.9
2019-03-09T01:25:48.306Z,22.8
2019-03-09T01:28:54.327Z,22.8
2019-03-09T01:32:03.153Z,22.8
2019-03-09T01:35:09.163Z,22.8
2019-03-09T01:38:15.221Z,22.8
2019-03-09T01:41:21.071Z,22.8
2019-03-09T01:44:27.084Z,22.8
2019-03-09T01:47:33.160Z,22.8
2019-03-09T01:50:39.161Z,22.8
2019-03-09T01:53:45.017Z,22.8
2019-03-09T01:56:50.956Z,22.8
2019-03-09T01:59:56.878Z,22.8
2019-03-09T02:03:02.901Z,22.8
2019-03-09T02:06:08.913Z,22.7
2019-03-09T02:09:14.821Z,22.7
2019-03-09T02:12:20.732Z,22.7
2019-03-09T02:15:26.635Z,22.7
2019-03-09T02:18:32.593Z,22.7
2019-03-09T02:21:38.551Z,22.7
2019-03-09T02:24:44.569Z,22.7
2019-03-09T02:27:50.526Z,22.7
2019-03-09T02:30:56.477Z,22.7
2019-03-09T02:34:02.508Z,22.7
2019-03-09T02:37:08.554Z,22.7
2019-03-09T02:40:17.341Z,22.7
2019-03-09T02:43:26.167Z,22.7
2019-03-09T02:46:32.181Z,22.7
2019-03-09T02:49:38.182Z,22.7
2019-03-09T02:52:44.156Z,22.7
2019-03-09T02:55:50.191Z,22.7
2019-03-09T02:58:56.159Z,22.7
2019-03-09T03:02:02.232Z,22.7
2019-03-09T03:05:08.294Z,22.6
2019-03-09T03:08:14.245Z,22.7
2019-03-09T03:11:20.205Z,22.6
2019-03-09T03:14:26.177Z,22.6
2019-03-09T03:17:32.187Z,22.6
2019-03-09T03:20:38.199Z,22.6
2019-03-09T03:23:44.264Z,22.6
2019-03-09T03:26:50.371Z,22.6
2019-03-09T03:29:56.388Z,22.6
2019-03-09T03:33:02.527Z,22.6
2019-03-09T03:36:08.511Z,22.6
2019-03-09T03:39:17.424Z,22.6
2019-03-09T03:42:23.318Z,22.6
2019-03-09T03:45:29.175Z,22.6
2019-03-09T03:48:35.167Z,22.6
2019-03-09T03:51:41.152Z,22.6
2019-03-09T03:54:47.145Z,22.6
2019-03-09T03:57:53.074Z,22.6
2019-03-09T04:00:59.132Z,22.6
2019-03-09T04:04:05.195Z,22.6
2019-03-09T04:07:11.200Z,22.6
2019-03-09T04:10:17.317Z,22.6
2019-03-09T04:13:23.391Z,22.6
2019-03-09T04:16:29.410Z,22.6
2019-03-09T04:19:35.361Z,22.6
2019-03-09T04:22:41.488Z,22.6
2019-03-09T04:25:47.465Z,22.5
2019-03-09T04:28:53.438Z,22.6
2019-03-09T04:31:59.371Z,22.5
2019-03-09T04:35:05.300Z,22.6
2019-03-09T04:38:11.332Z,22.6
2019-03-09T04:41:17.267Z,22.5
2019-03-09T04:44:23.201Z,22.5
2019-03-09T04:47:31.489Z,22.5
2019-03-09T04:50:37.468Z,22.5
2019-03-09T04:53:43.541Z,22.5
2019-03-09T04:56:49.446Z,22.5
2019-03-09T04:59:55.365Z,22.5
2019-03-09T05:03:01.496Z,22.5
2019-03-09T05:06:07.452Z,22.5
2019-03-09T05:09:13.447Z,22.5
2019-03-09T05:12:19.378Z,22.5
2019-03-09T05:15:25.366Z,22.5
2019-03-09T05:18:31.297Z,22.5
2019-03-09T05:21:37.279Z,22.5
2019-03-09T05:24:43.306Z,22.6
2019-03-09T05:27:50.438Z,22.6
2019-03-09T05:30:56.308Z,22.6
2019-03-09T05:34:02.238Z,22.6
2019-03-09T05:37:08.227Z,22.6
2019-03-09T05:40:14.285Z,22.6
2019-03-09T05:43:23.354Z,22.6
2019-03-09T05:46:29.356Z,22.6
2019-03-09T05:49:35.317Z,22.6
2019-03-09T05:52:41.285Z,22.6
2019-03-09T05:55:47.167Z,22.7
2019-03-09T05:58:53.021Z,22.7
2019-03-09T06:01:58.951Z,22.7
2019-03-09T06:05:04.910Z,22.7
2019-03-09T06:08:10.833Z,22.7
2019-03-09T06:11:16.881Z,22.7
2019-03-09T06:14:22.820Z,22.7
2019-03-09T06:17:28.687Z,22.7
2019-03-09T06:20:37.084Z,22.7
2019-03-09T06:23:43.008Z,22.8
2019-03-09T06:26:48.996Z,22.8
2019-03-09T06:29:54.967Z,22.8
2019-03-09T06:33:00.971Z,22.8
2019-03-09T06:36:06.934Z,22.8
2019-03-09T06:39:13.009Z,22.8
2019-03-09T06:42:18.917Z,22.9
2019-03-09T06:45:24.852Z,22.9
2019-03-09T06:48:30.813Z,22.9
2019-03-09T06:51:36.762Z,22.9
2019-03-09T06:54:42.720Z,23
2019-03-09T06:57:48.681Z,23
2019-03-09T07:00:54.620Z,23
2019-03-09T07:04:00.622Z,23.1
2019-03-09T07:07:06.642Z,23.1
2019-03-09T07:10:12.662Z,23.2
2019-03-09T07:13:18.722Z,23.3
2019-03-09T07:16:24.721Z,23.4
2019-03-09T07:19:30.642Z,23.5
2019-03-09T07:22:36.592Z,23.5
2019-03-09T07:25:42.736Z,23.6
2019-03-09T07:28:48.623Z,23.7
2019-03-09T07:31:56.826Z,23.7
2019-03-09T07:35:02.690Z,23.8
2019-03-09T07:38:08.632Z,23.9
2019-03-09T07:41:14.570Z,23.9
2019-03-09T07:44:20.610Z,24
2019-03-09T07:47:26.700Z,24
2019-03-09T07:50:32.696Z,24.1
2019-03-09T07:53:38.859Z,24.1
2019-03-09T07:56:44.828Z,24.2
2019-03-09T07:59:50.771Z,24.2
2019-03-09T08:02:56.790Z,24.2
2019-03-09T08:06:02.738Z,24.2
2019-03-09T08:09:08.744Z,24.2
2019-03-09T08:12:14.663Z,24.2
2019-03-09T08:15:20.618Z,24.2
2019-03-09T08:18:26.633Z,24.2
2019-03-09T08:21:32.598Z,24.2
2019-03-09T08:24:38.627Z,24.2
2019-03-09T08:27:44.628Z,24.2
2019-03-09T08:30:50.621Z,24.2
2019-03-09T08:33:56.646Z,24.2
2019-03-09T08:37:02.697Z,24.2
2019-03-09T08:40:08.849Z,24.2
2019-03-09T08:43:15.017Z,24.2
2019-03-09T08:46:20.904Z,24.2
2019-03-09T08:49:26.916Z,24.2
2019-03-09T08:52:32.845Z,24.2
2019-03-09T08:55:38.904Z,24.3
2019-03-09T08:58:44.947Z,24.3
2019-03-09T09:01:50.889Z,24.2
2019-03-09T09:04:56.924Z,24.2
2019-03-09T09:08:03.938Z,24.3
2019-03-09T09:11:10.275Z,24.3
2019-03-09T09:14:16.247Z,24.3
2019-03-09T09:17:22.210Z,24.3
2019-03-09T09:20:28.288Z,24.3
2019-03-09T09:23:34.446Z,24.3
2019-03-09T09:26:40.296Z,24.3
2019-03-09T09:29:46.272Z,24.3
2019-03-09T09:32:52.286Z,24.3
2019-03-09T09:35:58.237Z,24.3
2019-03-09T09:39:04.150Z,24.3
2019-03-09T09:42:10.395Z,24.3
2019-03-09T09:45:16.500Z,24.3
2019-03-09T09:48:22.565Z,24.3
2019-03-09T09:51:28.401Z,24.3
2019-03-09T09:54:34.404Z,24.3
2019-03-09T09:57:40.389Z,24.3
2019-03-09T10:00:46.292Z,24.3
2019-03-09T10:03:52.336Z,24.3
2019-03-09T10:06:58.388Z,24.3
2019-03-09T10:10:04.349Z,24.3
2019-03-09T10:13:10.310Z,24.3
2019-03-09T10:16:16.260Z,24.3
2019-03-09T10:19:22.210Z,24.3
2019-03-09T10:22:28.155Z,24.3
2019-03-09T10:25:34.046Z,24.4
2019-03-09T10:28:40.019Z,24.3
2019-03-09T10:31:45.978Z,24.4
2019-03-09T10:34:52.001Z,24.3
2019-03-09T10:37:58.049Z,24.4
2019-03-09T10:41:04.049Z,24.4
2019-03-09T10:44:09.910Z,24.4
2019-03-09T10:47:15.845Z,24.4
2019-03-09T10:50:21.795Z,24.4
2019-03-09T10:53:30.199Z,24.4
2019-03-09T10:56:36.104Z,24.4
2019-03-09T10:59:42.035Z,24.4
2019-03-09T11:02:48.103Z,24.4
2019-03-09T11:05:56.893Z,24.4
2019-03-09T11:09:02.816Z,24.4
2019-03-09T11:12:08.812Z,24.4
2019-03-09T11:15:14.841Z,24.4
2019-03-09T11:18:20.850Z,24.4
2019-03-09T11:21:26.808Z,24.4
2019-03-09T11:24:32.835Z,24.4
2019-03-09T11:27:38.890Z,24.4
2019-03-09T11:30:44.873Z,24.4
2019-03-09T11:33:50.905Z,24.4
2019-03-09T11:36:56.908Z,24.4
2019-03-09T11:40:02.931Z,24.4
2019-03-09T11:43:08.980Z,24.4
2019-03-09T11:46:15.027Z,24.4
2019-03-09T11:49:20.894Z,24.4
2019-03-09T11:52:29.041Z,24.4
2019-03-09T11:55:35.430Z,24.4
2019-03-09T11:58:41.402Z,24.4
2019-03-09T12:01:47.384Z,24.4
2019-03-09T12:04:53.295Z,24.3
2019-03-09T12:07:59.209Z,24.4
2019-03-09T12:11:05.447Z,24.4
2019-03-09T12:14:11.444Z,24.4
2019-03-09T12:17:17.455Z,24.4
2019-03-09T12:20:23.501Z,24.3
2019-03-09T12:23:29.420Z,24.4
2019-03-09T12:26:35.435Z,24.3
2019-03-09T12:29:41.403Z,24.3
2019-03-09T12:32:47.390Z,24.3
2019-03-09T12:35:53.357Z,24.3
2019-03-09T12:38:59.300Z,24.3
2019-03-09T12:42:05.230Z,24.3
2019-03-09T12:45:11.166Z,24.3
2019-03-09T12:48:17.241Z,24.3
2019-03-09T12:51:23.158Z,24.3
2019-03-09T12:54:29.103Z,24.3
2019-03-09T12:57:35.033Z,24.3
2019-03-09T13:00:40.993Z,24.3
2019-03-09T13:03:46.965Z,24.3
2019-03-09T13:06:52.925Z,24.3
2019-03-09T13:09:58.818Z,24.3
2019-03-09T13:13:04.749Z,24.2
2019-03-09T13:16:10.857Z,24.2
2019-03-09T13:19:17.303Z,24.3
2019-03-09T13:22:27.739Z,24.3
2019-03-09T13:25:33.659Z,24.3
2019-03-09T13:28:41.875Z,24.3
2019-03-09T13:31:47.803Z,24.3
2019-03-09T13:34:53.778Z,24.3
2019-03-09T13:37:59.773Z,24.2
2019-03-09T13:41:05.771Z,24.2
2019-03-09T13:44:14.635Z,24.2
2019-03-09T13:47:20.630Z,24.2
2019-03-09T13:50:26.588Z,24.2
2019-03-09T13:53:32.681Z,24.2
2019-03-09T13:56:38.737Z,24.3
2019-03-09T13:59:44.684Z,24.2
2019-03-09T14:02:50.571Z,24.2
2019-03-09T14:05:56.508Z,24.2
2019-03-09T14:09:02.440Z,24.2
2019-03-09T14:12:08.346Z,24.2
2019-03-09T14:15:14.364Z,24.2
2019-03-09T14:18:20.426Z,24.2
2019-03-09T14:21:26.382Z,24.2
2019-03-09T14:24:32.290Z,24.2
2019-03-09T14:27:38.215Z,24.2
2019-03-09T14:30:44.102Z,24.2
2019-03-09T14:33:50.175Z,24.2
2019-03-09T14:36:56.134Z,24.2
2019-03-09T14:40:02.068Z,24.2
2019-03-09T14:43:08.009Z,24.2
2019-03-09T14:46:13.876Z,24.2
2019-03-09T14:49:19.815Z,24.2
2019-03-09T14:52:25.771Z,24.2
2019-03-09T14:55:31.723Z,24.2
2019-03-09T14:58:37.737Z,24.2
2019-03-09T15:01:43.597Z,24.2
2019-03-09T15:04:49.671Z,24.2
2019-03-09T15:07:55.666Z,24.2
2019-03-09T15:11:01.580Z,24.2
2019-03-09T15:14:07.780Z,24.2
2019-03-09T15:17:13.745Z,24.2
2019-03-09T15:20:19.773Z,24.2
2019-03-09T15:23:26.338Z,24.2
2019-03-09T15:26:32.292Z,24.2
2019-03-09T15:29:38.208Z,24.2
2019-03-09T15:32:44.128Z,24.2
2019-03-09T15:35:50.127Z,24.1
2019-03-09T15:38:56.035Z,24.1
2019-03-09T15:42:01.963Z,24.1
2019-03-09T15:45:08.134Z,24.1
2019-03-09T15:48:14.282Z,24.1
2019-03-09T15:51:20.244Z,24.1
2019-03-09T15:54:26.352Z,24
2019-03-09T15:57:32.357Z,24
2019-03-09T16:00:38.273Z,24.1
2019-03-09T16:03:44.191Z,24
2019-03-09T16:06:50.105Z,24
2019-03-09T16:09:56.074Z,24
2019-03-09T16:13:02.125Z,24
2019-03-09T16:16:08.109Z,24
2019-03-09T16:19:14.026Z,23.9
2019-03-09T16:22:22.228Z,23.9
2019-03-09T16:25:28.957Z,23.9
2019-03-09T16:28:35.021Z,23.9
2019-03-09T16:31:40.948Z,23.9
2019-03-09T16:34:46.974Z,23.9
2019-03-09T16:37:52.947Z,23.9
2019-03-09T16:40:58.870Z,23.9
2019-03-09T16:44:04.776Z,23.8
2019-03-09T16:47:10.739Z,23.8
2019-03-09T16:50:16.585Z,23.8
2019-03-09T16:53:22.688Z,23.7
2019-03-09T16:56:28.607Z,23.7
2019-03-09T16:59:34.651Z,23.7
2019-03-09T17:02:40.700Z,23.7
2019-03-09T17:05:46.737Z,23.7
2019-03-09T17:08:52.807Z,23.7
2019-03-09T17:11:58.808Z,23.6
2019-03-09T17:15:07.531Z,23.6
2019-03-09T17:18:13.398Z,23.6
2019-03-09T17:21:19.518Z,23.6
2019-03-09T17:24:25.447Z,23.6
2019-03-09T17:27:31.451Z,23.6
2019-03-09T17:30:37.349Z,23.5
2019-03-09T17:33:43.280Z,23.5
2019-03-09T17:36:49.271Z,23.5
2019-03-09T17:39:55.234Z,23.5
2019-03-09T17:43:01.178Z,23.5
2019-03-09T17:46:07.088Z,23.4
2019-03-09T17:49:13.017Z,23.4
2019-03-09T17:52:19.054Z,23.4
2019-03-09T17:55:24.979Z,23.4
2019-03-09T17:58:30.936Z,23.4
2019-03-09T18:01:36.858Z,23.4
2019-03-09T18:04:42.790Z,23.4
2019-03-09T18:07:51.374Z,23.3
2019-03-09T18:10:57.339Z,23.3
2019-03-09T18:14:06.803Z,23.3
2019-03-09T18:17:13.301Z,23.3
2019-03-09T18:20:19.303Z,23.3
2019-03-09T18:23:25.210Z,23.3
2019-03-09T18:26:31.193Z,23.3
2019-03-09T18:29:37.287Z,23.2
2019-03-09T18:32:43.294Z,23.2
2019-03-09T18:35:49.421Z,23.2
2019-03-09T18:38:55.437Z,23.1
2019-03-09T18:42:01.377Z,23.1
2019-03-09T18:45:07.386Z,23.1
2019-03-09T18:48:13.478Z,23.1
2019-03-09T18:51:19.444Z,23.1
2019-03-09T18:54:25.418Z,23.1
2019-03-09T18:57:31.488Z,23
2019-03-09T19:00:37.345Z,23
2019-03-09T19:03:43.262Z,23
2019-03-09T19:06:49.227Z,23
2019-03-09T19:09:55.114Z,23
2019-03-09T19:13:01.162Z,22.9
2019-03-09T19:16:07.034Z,22.9
2019-03-09T19:19:12.958Z,23
2019-03-09T19:22:18.893Z,22.9
2019-03-09T19:25:24.903Z,22.9
2019-03-09T19:28:30.941Z,22.9
2019-03-09T19:31:36.883Z,22.9
2019-03-09T19:34:42.787Z,22.8
2019-03-09T19:37:48.750Z,22.8
2019-03-09T19:40:57.323Z,22.8
2019-03-09T19:44:03.239Z,22.8
2019-03-09T19:47:09.220Z,22.8
2019-03-09T19:50:15.221Z,22.8
2019-03-09T19:53:21.230Z,22.8
2019-03-09T19:56:27.220Z,22.8
2019-03-09T19:59:33.119Z,22.7
2019-03-09T20:02:39.099Z,22.7
2019-03-09T20:05:45.187Z,22.7
2019-03-09T20:08:51.176Z,22.7
2019-03-09T20:11:57.070Z,22.6
2019-03-09T20:15:03.045Z,22.7
2019-03-09T20:18:08.990Z,22.6
2019-03-09T20:21:15.016Z,22.6
2019-03-09T20:24:20.905Z,22.6
2019-03-09T20:27:26.966Z,22.6
2019-03-09T20:30:32.900Z,22.6
2019-03-09T20:33:38.934Z,22.6
2019-03-09T20:36:44.939Z,22.6
2019-03-09T20:39:50.949Z,22.6
2019-03-09T20:42:56.975Z,22.6
2019-03-09T20:46:02.846Z,22.6
2019-03-09T20:49:08.853Z,22.6
2019-03-09T20:52:14.896Z,22.6
2019-03-09T20:55:20.869Z,22.6
2019-03-09T20:58:26.910Z,22.6
2019-03-09T21:01:32.896Z,22.6
2019-03-09T21:04:38.885Z,22.5
2019-03-09T21:07:45.072Z,22.6
2019-03-09T21:10:50.991Z,22.5
2019-03-09T21:14:08.033Z,22.5
2019-03-09T21:17:16.936Z,22.5
2019-03-09T21:20:22.961Z,22.5
2019-03-09T21:23:28.942Z,22.5
2019-03-09T21:26:37.273Z,22.5
2019-03-09T21:29:43.227Z,22.5
2019-03-09T21:32:49.176Z,22.5
2019-03-09T21:35:55.155Z,22.5
2019-03-09T21:39:01.098Z,22.5
2019-03-09T21:42:07.143Z,22.5
2019-03-09T21:45:13.050Z,22.5
2019-03-09T21:48:19.064Z,22.5
2019-03-09T21:51:24.985Z,22.5
2019-03-09T21:54:31.035Z,22.5
2019-03-09T21:57:36.975Z,22.5
2019-03-09T22:00:42.933Z,22.5
2019-03-09T22:03:48.811Z,22.5
2019-03-09T22:06:54.840Z,22.4
2019-03-09T22:10:00.846Z,22.5
2019-03-09T22:13:06.931Z,22.5
2019-03-09T22:16:12.930Z,22.5
2019-03-09T22:19:18.985Z,22.5
2019-03-09T22:22:24.953Z,22.4
2019-03-09T22:25:30.847Z,22.4
2019-03-09T22:28:36.801Z,22.4
2019-03-09T22:31:42.753Z,22.4
2019-03-09T22:34:48.755Z,22.4
2019-03-09T22:37:55.022Z,22.4
2019-03-09T22:41:01.032Z,22.4
2019-03-09T22:44:06.942Z,22.4
2019-03-09T22:47:12.923Z,22.4
2019-03-09T22:50:18.933Z,22.4
2019-03-09T22:53:24.958Z,22.4
2019-03-09T22:56:31.068Z,22.4
2019-03-09T22:59:37.096Z,22.4
2019-03-09T23:02:44.790Z,22.4
2019-03-09T23:05:51.225Z,22.4
2019-03-09T23:08:57.298Z,22.4
2019-03-09T23:12:03.316Z,22.4
2019-03-09T23:15:09.259Z,22.4
2019-03-09T23:18:15.396Z,22.3
2019-03-09T23:21:21.345Z,22.3
2019-03-09T23:24:27.353Z,22.3
2019-03-09T23:27:33.376Z,22.3
2019-03-09T23:30:39.368Z,22.3
2019-03-09T23:33:45.370Z,22.3
2019-03-09T23:36:51.332Z,22.3
2019-03-09T23:39:57.292Z,22.3
2019-03-09T23:43:03.321Z,22.3
2019-03-09T23:46:09.267Z,22.3
2019-03-09T23:49:15.201Z,22.3
2019-03-09T23:52:21.132Z,22.2
2019-03-09T23:55:27.115Z,22.3
2019-03-09T23:58:33.162Z,22.3
